Time;durP1;ratioP1;P1;durP2;ratioP2;P2;SDS_P1;SDS_P2;PMS_P1;PMS_P2;Temp;Humidity;BMP_temperature;BMP_pressure;BME280_temperature;BME280_humidity;BME280_pressure;Samples;Min_cycle;Max_cycle;Signal;HPM_P1;HPM_P2
2022/08/22 00:00:18;;;;;;;0.00;0.00;;;19.40;99.90;;;;;;4983547;28;20433;-76
2022/08/22 00:02:58;;;;;;;0.00;0.00;;;19.50;99.90;;;;;;4998730;28;20437;-74
2022/08/22 00:05:52;;;;;;;0.00;0.00;;;19.40;99.90;;;;;;5001665;28;20547;-77
2022/08/22 00:08:27;;;;;;;0.00;0.00;;;19.40;99.90;;;;;;5002090;28;20462;-78
2022/08/22 00:11:02;;;;;;;0.00;0.00;;;19.50;99.90;;;;;;5000067;28;21130;-72
2022/08/22 00:13:36;;;;;;;0.00;0.00;;;19.50;99.90;;;;;;4998352;28;20434;-72
2022/08/22 00:16:12;;;;;;;0.00;0.00;;;19.50;99.90;;;;;;4996437;28;20678;-71
2022/08/22 00:18:48;;;;;;;0.00;0.00;;;19.40;99.90;;;;;;5037891;28;20470;-71
2022/08/22 00:21:22;;;;;;;0.00;0.00;;;19.40;99.90;;;;;;5054020;28;20443;-71
2022/08/22 00:23:57;;;;;;;0.00;0.00;;;19.30;99.90;;;;;;5058259;28;20459;-71
2022/08/22 00:26:39;;;;;;;0.00;0.00;;;19.30;99.90;;;;;;5052647;28;20493;-71
2022/08/22 00:29:15;;;;;;;0.00;0.00;;;19.30;99.90;;;;;;5060467;28;20622;-73
2022/08/22 00:31:48;;;;;;;0.00;0.00;;;19.20;99.90;;;;;;5051045;28;20450;-73
2022/08/22 00:34:24;;;;;;;0.00;0.00;;;19.20;99.90;;;;;;5045980;28;21020;-71
2022/08/22 00:37:06;;;;;;;0.00;0.00;;;19.20;99.90;;;;;;5060579;28;20568;-71
2022/08/22 00:39:39;;;;;;;0.00;0.00;;;19.20;99.90;;;;;;5060327;28;20465;-71
2022/08/22 00:42:39;;;;;;;0.00;0.00;;;19.30;99.90;;;;;;5060475;28;20443;-71
2022/08/22 00:45:30;;;;;;;0.00;0.00;;;19.30;99.90;;;;;;5020571;28;20513;-72
2022/08/22 00:48:16;;;;;;;0.00;0.00;;;19.30;99.90;;;;;;5061251;28;20430;-71
2022/08/22 00:51:13;;;;;;;0.00;0.00;;;19.30;99.90;;;;;;5061151;28;20490;-71
2022/08/22 00:53:53;;;;;;;0.00;0.00;;;19.40;99.90;;;;;;5044667;28;20441;-71
2022/08/22 00:56:50;;;;;;;0.00;0.00;;;19.40;99.90;;;;;;5041828;28;20451;-71
2022/08/22 00:59:51;;;;;;;0.00;0.00;;;19.50;99.90;;;;;;5041573;28;20460;-72
2022/08/22 01:02:32;;;;;;;0.00;0.00;;;19.40;99.90;;;;;;5040412;28;20445;-71
2022/08/22 01:05:19;;;;;;;0.00;0.00;;;19.40;99.90;;;;;;5040392;28;20483;-71
2022/08/22 01:08:08;;;;;;;0.00;0.00;;;19.40;99.90;;;;;;5045278;28;20455;-70
2022/08/22 01:10:55;;;;;;;0.00;0.00;;;19.30;99.90;;;;;;5059848;28;20443;-70
2022/08/22 01:13:46;;;;;;;0.00;0.00;;;19.30;99.90;;;;;;5060389;28;20457;-72
2022/08/22 01:16:27;;;;;;;0.00;0.00;;;19.20;99.90;;;;;;5060394;28;20618;-72
2022/08/22 01:19:21;;;;;;;0.00;0.00;;;19.30;99.90;;;;;;5064203;28;21241;-70
2022/08/22 01:22:20;;;;;;;0.00;0.00;;;19.30;99.90;;;;;;5065170;28;20443;-70
2022/08/22 01:25:22;;;;;;;0.00;0.00;;;19.30;99.90;;;;;;5061540;28;20489;-72
2022/08/22 01:28:23;;;;;;;0.00;0.00;;;19.30;99.90;;;;;;5046260;28;20991;-71
2022/08/22 01:31:36;;;;;;;0.00;0.00;;;19.30;99.90;;;;;;5059880;28;20452;-71
2022/08/22 01:34:31;;;;;;;0.00;0.00;;;19.40;99.90;;;;;;5052402;28;20447;-71
2022/08/22 01:37:25;;;;;;;0.00;0.00;;;19.40;99.90;;;;;;5061128;28;20431;-71
2022/08/22 01:40:17;;;;;;;0.00;0.00;;;19.40;99.90;;;;;;5060195;28;20491;-71
2022/08/22 01:43:04;;;;;;;0.00;0.00;;;19.30;99.90;;;;;;5060355;28;20423;-71
2022/08/22 01:46:15;;;;;;;0.00;0.00;;;19.30;99.90;;;;;;5059455;28;20475;-72
2022/08/22 01:48:53;;;;;;;0.00;0.00;;;19.20;99.90;;;;;;4996422;28;20623;-71
2022/08/22 01:51:30;;;;;;;0.00;0.00;;;19.20;99.90;;;;;;4996177;28;20481;-72
2022/08/22 01:54:08;;;;;;;0.00;0.00;;;19.20;99.90;;;;;;4996403;28;21097;-72
2022/08/22 01:56:43;;;;;;;0.00;0.00;;;19.20;99.90;;;;;;4996235;28;20452;-71
2022/08/22 01:59:13;;;;;;;0.00;0.00;;;19.10;99.90;;;;;;4995836;28;20609;-72
2022/08/22 02:01:56;;;;;;;0.00;0.00;;;19.20;99.90;;;;;;4995880;28;20528;-72
2022/08/22 02:04:33;;;;;;;0.00;0.00;;;19.20;99.90;;;;;;4995982;28;21033;-71
2022/08/22 02:07:06;;;;;;;0.00;0.00;;;19.20;99.90;;;;;;4996079;28;21032;-71
2022/08/22 02:09:43;;;;;;;0.00;0.00;;;19.20;99.90;;;;;;4995852;28;20477;-71
2022/08/22 02:12:26;;;;;;;0.00;0.00;;;19.20;99.90;;;;;;4995988;28;20450;-71
2022/08/22 02:15:07;;;;;;;0.00;0.00;;;19.20;99.90;;;;;;4996222;28;20441;-72
2022/08/22 02:20:24;;;;;;;0.00;0.00;;;19.20;99.90;;;;;;5621889;22;20513;-90
2022/08/22 02:23:00;;;;;;;0.00;0.00;;;19.20;99.90;;;;;;5060158;28;20697;-90
2022/08/22 02:25:33;;;;;;;0.00;0.00;;;19.20;99.90;;;;;;5059550;28;21022;-89
2022/08/22 02:28:10;;;;;;;0.00;0.00;;;19.10;99.90;;;;;;5059035;28;20448;-89
2022/08/22 02:30:50;;;;;;;0.00;0.00;;;19.10;99.90;;;;;;5058550;28;21091;-90
2022/08/22 02:33:32;;;;;;;0.00;0.00;;;19.10;99.90;;;;;;5058431;28;20467;-90
2022/08/22 02:36:07;;;;;;;0.00;0.00;;;19.10;99.90;;;;;;5059757;28;20547;-89
2022/08/22 02:38:42;;;;;;;0.00;0.00;;;19.20;99.90;;;;;;5058794;28;20527;-88
2022/08/22 02:41:21;;;;;;;0.00;0.00;;;19.20;99.90;;;;;;5058266;28;20541;-90
2022/08/22 02:43:57;;;;;;;0.00;0.00;;;19.20;99.90;;;;;;5058607;28;20522;-91
2022/08/22 02:46:30;;;;;;;0.00;0.00;;;19.20;99.90;;;;;;5057594;28;20579;-90
2022/08/22 02:49:04;;;;;;;0.00;0.00;;;19.20;99.90;;;;;;5058988;28;20442;-89
2022/08/22 02:51:40;;;;;;;0.00;0.00;;;19.20;99.90;;;;;;5057419;28;20467;-89
2022/08/22 02:54:17;;;;;;;0.00;0.00;;;19.20;99.90;;;;;;5063250;28;20474;-90
2022/08/22 02:56:54;;;;;;;0.00;0.00;;;19.30;99.90;;;;;;5072118;28;20460;-88
2022/08/22 02:59:30;;;;;;;0.00;0.00;;;19.20;99.90;;;;;;5073979;28;20432;-89
2022/08/22 03:02:14;;;;;;;0.00;0.00;;;19.20;99.90;;;;;;5074032;28;20467;-89
2022/08/22 03:04:47;;;;;;;0.00;0.00;;;19.20;99.90;;;;;;5061110;28;20436;-88
2022/08/22 03:07:30;;;;;;;0.00;0.00;;;19.10;99.90;;;;;;5072020;28;20473;-89
2022/08/22 03:10:11;;;;;;;0.00;0.00;;;19.20;99.90;;;;;;5072671;28;20459;-89
2022/08/22 03:12:48;;;;;;;0.00;0.00;;;19.10;99.90;;;;;;5070920;28;20448;-90
2022/08/22 03:15:33;;;;;;;0.00;0.00;;;19.20;99.90;;;;;;5068058;28;20468;-90
2022/08/22 03:18:06;;;;;;;0.00;0.00;;;19.20;99.90;;;;;;5064503;28;20474;-90
2022/08/22 03:20:51;;;;;;;0.00;0.00;;;19.20;99.90;;;;;;5056440;28;20515;-89
2022/08/22 03:23:31;;;;;;;0.00;0.00;;;19.20;99.90;;;;;;5054650;28;20513;-91
2022/08/22 03:26:07;;;;;;;0.00;0.00;;;19.20;99.90;;;;;;5056873;28;20559;-90
2022/08/22 03:28:41;;;;;;;0.00;0.00;;;19.20;99.90;;;;;;5060509;28;20430;-89
2022/08/22 03:31:29;;;;;;;0.00;0.00;;;19.10;99.90;;;;;;5061033;28;20542;-90
2022/08/22 03:34:22;;;;;;;0.00;0.00;;;19.10;99.90;;;;;;5062337;28;20454;-91
2022/08/22 03:37:05;;;;;;;0.00;0.00;;;19.10;99.90;;;;;;5061047;28;20463;-91
2022/08/22 03:39:53;;;;;;;0.00;0.00;;;19.00;99.90;;;;;;5061506;28;20748;-90
2022/08/22 03:42:52;;;;;;;0.00;0.00;;;19.10;99.90;;;;;;5061773;28;20462;-89
2022/08/22 03:45:41;;;;;;;0.00;0.00;;;19.00;99.90;;;;;;5059691;28;20488;-89
2022/08/22 03:48:38;;;;;;;0.00;0.00;;;19.00;99.90;;;;;;5060100;28;20519;-90
2022/08/22 03:51:39;;;;;;;0.00;0.00;;;19.00;99.90;;;;;;5060781;28;20478;-90
2022/08/22 03:55:01;;;;;;;0.00;0.00;;;19.00;99.90;;;;;;5049368;28;20496;-90
2022/08/22 03:57:53;;;;;;;0.00;0.00;;;19.10;99.90;;;;;;5039385;28;20472;-90
2022/08/22 04:00:45;;;;;;;0.00;0.00;;;19.00;99.90;;;;;;5060499;28;20463;-88
2022/08/22 04:04:09;;;;;;;0.00;0.00;;;19.10;99.90;;;;;;5058819;28;20444;-90
2022/08/22 04:07:10;;;;;;;0.00;0.00;;;19.10;99.90;;;;;;4996159;28;20470;-89
2022/08/22 04:10:31;;;;;;;0.00;0.00;;;19.10;99.90;;;;;;4999087;28;20899;-91
2022/08/22 04:13:28;;;;;;;0.00;0.00;;;19.10;99.90;;;;;;5059304;28;20897;-90
2022/08/22 04:16:25;;;;;;;0.00;0.00;;;19.00;99.90;;;;;;5059786;28;20980;-91
2022/08/22 04:19:23;;;;;;;0.00;0.00;;;19.00;99.90;;;;;;5058325;28;20459;-90
2022/08/22 04:22:22;;;;;;;0.00;0.00;;;19.00;99.90;;;;;;5046295;28;20497;-91
2022/08/22 04:24:56;;;;;;;0.00;0.00;;;19.00;99.90;;;;;;5002527;28;20538;-90
2022/08/22 04:27:29;;;;;;;0.00;0.00;;;19.00;99.90;;;;;;5058498;28;20561;-89
2022/08/22 04:30:09;;;;;;;0.00;0.00;;;19.00;99.90;;;;;;5058848;28;20464;-90
2022/08/22 04:32:43;;;;;;;0.00;0.00;;;19.00;99.90;;;;;;5058512;28;20484;-90
2022/08/22 04:35:16;;;;;;;0.00;0.00;;;19.00;99.90;;;;;;5057809;28;20464;-90
2022/08/22 04:37:52;;;;;;;0.00;0.00;;;19.00;99.90;;;;;;5058417;28;20481;-89
2022/08/22 04:40:26;;;;;;;0.00;0.00;;;19.00;99.90;;;;;;5056700;28;20469;-89
2022/08/22 04:43:01;;;;;;;0.00;0.00;;;19.00;99.90;;;;;;5055426;28;20476;-91
2022/08/22 04:45:37;;;;;;;0.00;0.00;;;19.00;99.90;;;;;;5056164;28;20436;-90
2022/08/22 04:48:09;;;;;;;0.00;0.00;;;19.00;99.90;;;;;;5054619;28;20524;-91
2022/08/22 04:50:43;;;;;;;0.00;0.00;;;19.00;99.90;;;;;;5037306;28;20452;-89
2022/08/22 04:53:25;;;;;;;0.00;0.00;;;19.00;99.90;;;;;;5038717;28;20559;-90
2022/08/22 04:56:03;;;;;;;0.00;0.00;;;18.90;99.90;;;;;;5042412;28;20434;-93
2022/08/22 04:58:43;;;;;;;0.00;0.00;;;18.90;99.90;;;;;;5042118;28;20451;-91
2022/08/22 05:01:18;;;;;;;0.00;0.00;;;19.00;99.90;;;;;;5036782;28;20479;-90
2022/08/22 05:03:56;;;;;;;0.00;0.00;;;19.00;99.90;;;;;;5051181;28;20862;-91
2022/08/22 05:06:29;;;;;;;0.00;0.00;;;19.00;99.90;;;;;;5056847;28;20795;-90
2022/08/22 05:09:02;;;;;;;0.00;0.00;;;19.00;99.90;;;;;;5057120;28;20455;-91
2022/08/22 05:11:35;;;;;;;0.00;0.00;;;19.00;99.90;;;;;;5060303;28;20477;-92
2022/08/22 05:14:08;;;;;;;0.00;0.00;;;19.00;99.90;;;;;;5059597;28;20461;-92
2022/08/22 05:16:43;;;;;;;0.00;0.00;;;19.10;99.90;;;;;;5050469;28;20637;-92
2022/08/22 05:19:25;;;;;;;0.00;0.00;;;19.10;99.90;;;;;;5040438;28;20691;-92
2022/08/22 05:22:01;;;;;;;0.00;0.00;;;19.10;99.90;;;;;;5039065;28;20545;-93
2022/08/22 05:24:36;;;;;;;0.00;0.00;;;19.10;99.90;;;;;;5038513;28;20446;-92
2022/08/22 05:27:10;;;;;;;0.00;0.00;;;19.20;99.90;;;;;;5041311;28;20472;-94
2022/08/22 05:29:41;;;;;;;0.00;0.00;;;19.20;99.90;;;;;;5043254;28;20944;-93
2022/08/22 05:32:19;;;;;;;0.00;0.00;;;19.20;99.90;;;;;;5039961;28;20496;-93
2022/08/22 05:34:51;;;;;;;0.00;0.00;;;19.30;99.90;;;;;;5035779;28;20455;-91
2022/08/22 05:37:24;;;;;;;0.00;0.00;;;19.30;99.90;;;;;;5035667;28;20704;-92
2022/08/22 05:39:57;;;;;;;0.00;0.00;;;19.40;99.90;;;;;;5053800;28;20497;-91
2022/08/22 05:42:32;;;;;;;0.00;0.00;;;19.40;99.90;;;;;;5056853;28;20519;-90
2022/08/22 05:45:05;;;;;;;0.00;0.00;;;19.50;99.90;;;;;;5040088;28;20494;-91
2022/08/22 05:47:42;;;;;;;0.00;0.00;;;19.50;99.90;;;;;;5027975;28;20477;-91
2022/08/22 05:50:13;;;;;;;0.00;0.00;;;19.50;99.90;;;;;;5027767;28;20556;-90
2022/08/22 05:52:55;;;;;;;0.00;0.00;;;19.50;99.90;;;;;;5045111;28;20460;-91
2022/08/22 05:55:28;;;;;;;0.00;0.00;;;19.60;99.90;;;;;;5050753;28;20435;-92
2022/08/22 05:58:12;;;;;;;0.00;0.00;;;19.60;99.90;;;;;;5036047;28;20430;-92
2022/08/22 06:00:43;;;;;;;0.00;0.00;;;19.60;99.90;;;;;;5046492;28;20535;-89
2022/08/22 06:03:35;;;;;;;0.00;0.00;;;19.60;99.90;;;;;;5040627;28;20845;-89
2022/08/22 06:06:14;;;;;;;0.00;0.00;;;19.60;99.90;;;;;;5037514;28;20507;-91
2022/08/22 06:08:46;;;;;;;0.00;0.00;;;19.70;99.90;;;;;;5052597;28;20495;-92
2022/08/22 06:11:19;;;;;;;0.00;0.00;;;19.70;99.90;;;;;;5045973;28;20623;-92
2022/08/22 06:13:55;;;;;;;0.00;0.00;;;19.70;99.90;;;;;;5042828;28;20463;-91
2022/08/22 06:16:36;;;;;;;0.00;0.00;;;19.70;99.90;;;;;;5035082;28;20448;-89
2022/08/22 06:19:06;;;;;;;0.00;0.00;;;19.70;99.90;;;;;;5034061;28;20457;-90
2022/08/22 06:21:50;;;;;;;0.00;0.00;;;19.70;99.90;;;;;;5050988;28;20484;-91
2022/08/22 06:24:23;;;;;;;0.00;0.00;;;19.60;99.90;;;;;;5057048;28;20436;-91
2022/08/22 06:27:04;;;;;;;0.00;0.00;;;19.50;99.90;;;;;;5057682;28;20881;-90
2022/08/22 06:29:37;;;;;;;0.00;0.00;;;19.50;99.90;;;;;;5057670;28;20506;-92
2022/08/22 06:32:12;;;;;;;0.00;0.00;;;19.40;99.90;;;;;;5055080;28;20953;-92
2022/08/22 06:34:45;;;;;;;0.00;0.00;;;19.40;99.90;;;;;;5053439;28;20468;-90
2022/08/22 06:37:19;;;;;;;0.00;0.00;;;19.50;99.90;;;;;;5053118;28;20536;-90
2022/08/22 06:39:52;;;;;;;0.00;0.00;;;19.50;99.90;;;;;;5052690;28;20482;-89
2022/08/22 06:42:22;;;;;;;0.00;0.00;;;19.40;99.90;;;;;;5053972;28;20498;-91
2022/08/22 06:44:55;;;;;;;0.00;0.00;;;19.40;99.90;;;;;;5055536;28;20452;-90
2022/08/22 06:47:29;;;;;;;0.00;0.00;;;19.40;99.90;;;;;;5062770;28;20496;-89
2022/08/22 06:50:04;;;;;;;0.00;0.00;;;19.40;99.90;;;;;;5057456;28;20444;-91
2022/08/22 06:52:56;;;;;;;0.00;0.00;;;19.40;99.90;;;;;;5059248;28;20591;-91
2022/08/22 06:55:26;;;;;;;0.00;0.00;;;19.40;99.90;;;;;;5068609;28;20475;-91
2022/08/22 06:57:58;;;;;;;0.00;0.00;;;19.40;99.90;;;;;;5062797;28;20455;-89
2022/08/22 07:00:29;;;;;;;0.00;0.00;;;19.40;99.90;;;;;;5064129;28;20474;-92
2022/08/22 07:03:03;;;;;;;0.00;0.00;;;19.50;99.90;;;;;;5064171;28;20932;-89
2022/08/22 07:05:37;;;;;;;0.00;0.00;;;19.50;99.90;;;;;;5065584;28;20439;-90
2022/08/22 07:08:08;;;;;;;0.00;0.00;;;19.60;99.90;;;;;;5063359;28;20487;-89
2022/08/22 07:10:39;;;;;;;0.00;0.00;;;19.70;99.90;;;;;;5064301;28;20464;-91
2022/08/22 07:13:13;;;;;;;0.00;0.00;;;19.70;99.90;;;;;;5061958;28;20515;-92
2022/08/22 07:15:42;;;;;;;0.00;0.00;;;19.80;99.90;;;;;;5063860;28;20440;-88
2022/08/22 07:18:19;;;;;;;0.00;0.00;;;19.90;99.90;;;;;;5064089;28;20981;-93
2022/08/22 07:20:51;;;;;;;0.00;0.00;;;19.90;99.90;;;;;;5063425;28;20586;-91
2022/08/22 07:23:32;;;;;;;0.00;0.00;;;20.10;99.90;;;;;;5063763;28;20505;-92
2022/08/22 07:26:14;;;;;;;0.00;0.00;;;20.20;99.90;;;;;;5053985;28;20943;-91
2022/08/22 07:28:46;;;;;;;0.00;0.00;;;20.40;99.90;;;;;;5036463;28;20469;-90
2022/08/22 07:31:31;;;;;;;0.00;0.00;;;20.50;99.90;;;;;;5038234;28;20496;-91
2022/08/22 07:34:25;;;;;;;0.00;0.00;;;20.70;99.90;;;;;;5050933;28;20620;-89
2022/08/22 07:37:00;;;;;;;0.00;0.00;;;20.90;99.90;;;;;;5057023;28;20514;-90
2022/08/22 07:39:35;;;;;;;0.00;0.00;;;21.10;99.90;;;;;;5052393;28;20503;-89
2022/08/22 07:42:10;;;;;;;0.00;0.00;;;21.20;99.90;;;;;;5051167;28;21008;-90
2022/08/22 07:44:56;;;;;;;0.00;0.00;;;21.40;99.90;;;;;;5039811;28;20453;-90
2022/08/22 07:47:32;;;;;;;0.00;0.00;;;21.60;99.90;;;;;;5045144;28;20461;-91
2022/08/22 07:50:06;;;;;;;0.00;0.00;;;21.80;99.90;;;;;;5038560;28;20861;-90
2022/08/22 07:52:44;;;;;;;0.00;0.00;;;21.90;99.90;;;;;;5048118;28;20520;-91
2022/08/22 07:55:17;;;;;;;0.00;0.00;;;22.00;99.90;;;;;;5041541;28;20445;-88
2022/08/22 07:57:50;;;;;;;0.00;0.00;;;22.20;99.90;;;;;;5035508;28;20480;-88
2022/08/22 08:00:21;;;;;;;0.00;0.00;;;22.20;99.90;;;;;;5033908;28;20447;-90
2022/08/22 08:02:51;;;;;;;0.00;0.00;;;22.30;99.90;;;;;;5034656;28;20457;-90
2022/08/22 08:05:22;;;;;;;0.00;0.00;;;22.50;99.90;;;;;;5034337;28;20533;-90
2022/08/22 08:07:53;;;;;;;0.00;0.00;;;22.60;99.90;;;;;;5033054;28;20455;-90
2022/08/22 08:10:27;;;;;;;0.00;0.00;;;22.80;99.90;;;;;;5028449;28;20488;-89
2022/08/22 08:13:02;;;;;;;0.00;0.00;;;22.80;99.90;;;;;;5028554;28;20425;-89
2022/08/22 08:15:33;;;;;;;0.00;0.00;;;22.90;99.90;;;;;;5028825;28;20498;-89
2022/08/22 08:18:06;;;;;;;0.00;0.00;;;22.90;99.90;;;;;;5031232;28;20716;-90
2022/08/22 08:20:36;;;;;;;0.00;0.00;;;22.90;99.90;;;;;;5033921;28;20480;-89
2022/08/22 08:23:09;;;;;;;0.00;0.00;;;22.80;99.90;;;;;;5034258;28;20490;-87
2022/08/22 08:25:52;;;;;;;0.00;0.00;;;22.70;99.90;;;;;;5033208;28;20821;-88
2022/08/22 08:28:36;;;;;;;0.00;0.00;;;22.70;99.90;;;;;;5033933;28;20533;-89
2022/08/22 08:31:22;;;;;;;0.00;0.00;;;22.60;99.90;;;;;;5033201;28;20543;-89
2022/08/22 08:33:57;;;;;;;0.00;0.00;;;22.60;99.90;;;;;;5034932;28;20685;-85
2022/08/22 08:36:43;;;;;;;0.00;0.00;;;22.60;99.90;;;;;;5035184;28;20506;-88
2022/08/22 08:39:20;;;;;;;0.00;0.00;;;22.50;99.90;;;;;;5051528;28;20449;-91
2022/08/22 08:42:13;;;;;;;0.00;0.00;;;22.40;99.90;;;;;;5055770;28;20504;-89
2022/08/22 08:45:23;;;;;;;0.00;0.00;;;22.50;99.90;;;;;;5058748;28;20460;-88
2022/08/22 08:48:09;;;;;;;0.00;0.00;;;22.50;99.90;;;;;;5053374;28;20972;-90
2022/08/22 08:50:53;;;;;;;0.00;0.00;;;22.50;99.90;;;;;;5058266;28;20468;-91
2022/08/22 08:53:48;;;;;;;0.00;0.00;;;22.60;99.90;;;;;;5064933;28;20471;-88
2022/08/22 08:56:29;;;;;;;0.00;0.00;;;22.60;99.90;;;;;;5053471;28;20493;-90
2022/08/22 08:59:08;;;;;;;0.00;0.00;;;22.70;99.90;;;;;;5052970;28;20521;-89
2022/08/22 09:02:06;;;;;;;0.00;0.00;;;22.70;99.90;;;;;;5052696;28;20708;-89
2022/08/22 09:05:05;;;;;;;0.00;0.00;;;22.80;99.90;;;;;;5053114;28;20469;-91
2022/08/22 09:07:55;;;;;;;0.00;0.00;;;22.80;99.90;;;;;;5052679;28;20465;-91
2022/08/22 09:10:39;;;;;;;0.00;0.00;;;22.90;99.90;;;;;;5053243;28;20571;-89
2022/08/22 09:13:31;;;;;;;0.00;0.00;;;22.90;99.90;;;;;;5053246;28;20459;-90
2022/08/22 09:16:47;;;;;;;0.00;0.00;;;23.00;99.90;;;;;;5052720;28;20807;-91
2022/08/22 09:19:54;;;;;;;0.00;0.00;;;23.10;99.90;;;;;;5052546;28;21011;-89
2022/08/22 09:22:56;;;;;;;0.00;0.00;;;23.10;99.90;;;;;;5055675;28;20505;-90
2022/08/22 09:25:28;;;;;;;0.00;0.00;;;23.20;99.90;;;;;;5054545;28;20455;-92
2022/08/22 09:28:16;;;;;;;0.00;0.00;;;23.20;99.90;;;;;;5051748;28;20990;-89
2022/08/22 09:31:27;;;;;;;0.00;0.00;;;23.20;99.90;;;;;;5051125;28;20986;-89
2022/08/22 09:37:16;;;;;;;0.00;0.00;;;23.20;99.90;;;;;;5030136;28;20472;-88
2022/08/22 09:39:55;;;;;;;0.00;0.00;;;23.20;99.90;;;;;;5031245;28;20514;-89
2022/08/22 09:42:33;;;;;;;0.00;0.00;;;23.20;99.90;;;;;;5031440;28;20612;-89
2022/08/22 09:45:35;;;;;;;0.00;0.00;;;23.20;99.90;;;;;;5030934;28;20539;-91
2022/08/22 09:48:12;;;;;;;0.00;0.00;;;23.40;99.90;;;;;;5029727;28;20509;-87
2022/08/22 09:50:52;;;;;;;0.00;0.00;;;23.50;99.90;;;;;;5040518;28;20588;-89
2022/08/22 09:53:59;;;;;;;0.00;0.00;;;23.60;99.90;;;;;;5038421;28;20605;-89
2022/08/22 09:56:41;;;;;;;0.00;0.00;;;23.70;99.90;;;;;;5035107;28;20499;-90
2022/08/22 09:59:13;;;;;;;0.00;0.00;;;23.90;99.90;;;;;;5053565;28;20621;-89
2022/08/22 10:01:50;;;;;;;0.00;0.00;;;24.00;99.90;;;;;;5052479;28;20552;-90
2022/08/22 10:04:42;;;;;;;0.00;0.00;;;24.00;99.90;;;;;;5052963;28;20995;-86
2022/08/22 10:07:40;;;;;;;0.00;0.00;;;24.10;99.90;;;;;;5053485;28;20422;-89
2022/08/22 10:10:30;;;;;;;0.00;0.00;;;24.10;99.90;;;;;;5052709;28;20704;-88
2022/08/22 10:13:06;;;;;;;0.00;0.00;;;24.10;99.90;;;;;;5052230;28;20763;-88
2022/08/22 10:15:42;;;;;;;0.00;0.00;;;24.00;99.90;;;;;;5052696;28;20445;-89
2022/08/22 10:18:22;;;;;;;0.00;0.00;;;24.00;99.90;;;;;;5054695;28;20536;-90
2022/08/22 10:21:09;;;;;;;0.00;0.00;;;24.00;99.90;;;;;;5053486;28;20493;-87
2022/08/22 10:23:43;;;;;;;0.00;0.00;;;24.10;99.90;;;;;;5053111;28;20536;-90
2022/08/22 10:26:25;;;;;;;0.00;0.00;;;24.10;99.90;;;;;;5053741;28;21077;-90
2022/08/22 10:28:57;;;;;;;0.00;0.00;;;24.20;99.90;;;;;;5055137;28;20544;-88
2022/08/22 10:31:35;;;;;;;0.00;0.00;;;24.10;99.90;;;;;;5053261;28;20463;-88
2022/08/22 10:34:29;;;;;;;0.00;0.00;;;24.10;99.90;;;;;;5051559;28;20580;-89
2022/08/22 10:37:16;;;;;;;0.00;0.00;;;24.30;99.90;;;;;;5052354;28;20413;-90
2022/08/22 10:40:01;;;;;;;0.00;0.00;;;24.30;99.90;;;;;;5053332;28;20454;-89
2022/08/22 10:42:33;;;;;;;0.00;0.00;;;24.40;99.90;;;;;;5054481;28;20464;-89
2022/08/22 10:45:19;;;;;;;0.00;0.00;;;24.40;99.90;;;;;;5053972;28;20862;-89
2022/08/22 10:48:25;;;;;;;0.00;0.00;;;24.50;99.90;;;;;;5058965;28;20446;-89
2022/08/22 10:51:02;;;;;;;0.00;0.00;;;24.60;99.90;;;;;;5065403;28;20939;-90
2022/08/22 10:53:57;;;;;;;0.00;0.00;;;24.70;99.90;;;;;;5057048;28;20451;-89
2022/08/22 10:56:32;;;;;;;0.00;0.00;;;24.80;99.90;;;;;;5056437;28;20459;-90
2022/08/22 10:59:12;;;;;;;0.00;0.00;;;24.80;99.90;;;;;;5066460;28;20530;-89
2022/08/22 11:01:51;;;;;;;0.00;0.00;;;24.80;99.90;;;;;;5065868;28;20518;-89
2022/08/22 11:04:35;;;;;;;0.00;0.00;;;24.80;99.90;;;;;;5067020;28;20446;-89
2022/08/22 11:07:14;;;;;;;0.00;0.00;;;24.70;99.90;;;;;;5067497;28;20543;-88
2022/08/22 11:09:44;;;;;;;0.00;0.00;;;24.70;99.90;;;;;;5067329;28;20467;-89
2022/08/22 11:12:22;;;;;;;0.00;0.00;;;24.80;99.90;;;;;;5066074;28;20513;-90
2022/08/22 11:15:10;;;;;;;0.00;0.00;;;24.90;99.90;;;;;;5066533;28;20455;-89
2022/08/22 11:18:05;;;;;;;0.00;0.00;;;25.00;99.90;;;;;;5067300;28;20473;-88
2022/08/22 11:20:56;;;;;;;0.00;0.00;;;25.00;99.90;;;;;;5059619;28;20465;-89
2022/08/22 11:23:37;;;;;;;0.00;0.00;;;25.10;99.90;;;;;;5057756;28;20734;-91
2022/08/22 11:26:29;;;;;;;0.00;0.00;;;25.20;99.90;;;;;;5054405;28;20512;-88
2022/08/22 11:29:32;;;;;;;0.00;0.00;;;25.30;99.90;;;;;;5054964;28;20666;-87
2022/08/22 11:32:11;;;;;;;0.00;0.00;;;25.30;99.90;;;;;;5054581;28;21131;-87
2022/08/22 11:34:51;;;;;;;0.00;0.00;;;25.30;99.90;;;;;;5060028;28;20979;-89
2022/08/22 11:37:34;;;;;;;0.00;0.00;;;25.40;99.90;;;;;;5056804;28;20436;-89
2022/08/22 11:40:24;;;;;;;0.00;0.00;;;25.60;99.90;;;;;;5060948;28;20423;-87
2022/08/22 11:43:03;;;;;;;0.00;0.00;;;25.70;99.90;;;;;;5059335;28;20497;-90
2022/08/22 11:45:40;;;;;;;0.00;0.00;;;25.90;99.90;;;;;;5062113;28;20413;-88
2022/08/22 11:48:17;;;;;;;0.00;0.00;;;26.00;99.90;;;;;;5072010;28;20424;-88
2022/08/22 11:50:50;;;;;;;0.00;0.00;;;26.10;99.90;;;;;;5067930;28;20555;-89
2022/08/22 11:53:25;;;;;;;0.00;0.00;;;26.30;99.90;;;;;;5061340;28;20488;-90
2022/08/22 11:56:05;;;;;;;0.00;0.00;;;26.30;99.90;;;;;;5061087;28;20440;-90
2022/08/22 11:58:50;;;;;;;0.00;0.00;;;26.30;99.90;;;;;;5060568;28;20422;-91
2022/08/22 12:01:22;;;;;;;0.00;0.00;;;26.30;99.90;;;;;;5039700;28;20475;-88
2022/08/22 12:04:08;;;;;;;0.00;0.00;;;26.20;99.90;;;;;;5039519;28;20421;-89
2022/08/22 12:06:57;;;;;;;0.00;0.00;;;26.10;99.90;;;;;;5036658;28;20469;-88
2022/08/22 12:09:53;;;;;;;0.00;0.00;;;26.00;99.90;;;;;;5037801;28;20524;-90
2022/08/22 12:12:26;;;;;;;0.00;0.00;;;25.90;99.90;;;;;;5057498;28;20463;-89
2022/08/22 12:15:03;;;;;;;0.00;0.00;;;25.80;99.90;;;;;;5055224;28;20448;-89
2022/08/22 12:17:57;;;;;;;0.00;0.00;;;25.70;99.90;;;;;;5055090;28;20499;-90
2022/08/22 12:20:47;;;;;;;0.00;0.00;;;25.70;99.90;;;;;;5054085;28;20439;-89
2022/08/22 12:23:40;;;;;;;0.00;0.00;;;25.80;99.90;;;;;;5054159;28;20458;-89
2022/08/22 12:26:27;;;;;;;0.00;0.00;;;25.80;99.90;;;;;;5058540;28;20458;-87
2022/08/22 12:29:22;;;;;;;0.00;0.00;;;26.00;99.90;;;;;;5075688;28;20432;-89
2022/08/22 12:32:36;;;;;;;0.00;0.00;;;26.10;99.90;;;;;;5074600;28;20473;-86
2022/08/22 12:35:25;;;;;;;0.00;0.00;;;26.30;99.90;;;;;;5072089;28;20534;-87
2022/08/22 12:38:05;;;;;;;0.00;0.00;;;26.40;99.90;;;;;;5072410;28;20458;-88
2022/08/22 12:41:13;;;;;;;0.00;0.00;;;26.50;99.90;;;;;;5072642;28;20527;-89
2022/08/22 12:44:12;;;;;;;0.00;0.00;;;26.50;99.90;;;;;;5061575;28;20468;-88
2022/08/22 12:47:02;;;;;;;0.00;0.00;;;26.50;99.90;;;;;;5059958;28;20576;-88
2022/08/22 12:49:43;;;;;;;0.00;0.00;;;26.70;99.90;;;;;;5059894;28;20453;-88
2022/08/22 12:52:31;;;;;;;0.00;0.00;;;26.80;99.90;;;;;;5052431;28;20567;-88
2022/08/22 12:55:30;;;;;;;0.00;0.00;;;26.90;99.90;;;;;;5051062;28;20507;-90
2022/08/22 12:58:09;;;;;;;0.00;0.00;;;27.00;99.90;;;;;;5037435;28;21044;-88
2022/08/22 13:00:43;;;;;;;0.00;0.00;;;26.90;99.90;;;;;;5049562;28;20533;-90
2022/08/22 13:03:24;;;;;;;0.00;0.00;;;26.90;99.90;;;;;;5047965;28;21120;-90
2022/08/22 13:05:55;;;;;;;0.00;0.00;;;26.90;99.90;;;;;;5048288;28;20457;-91
2022/08/22 13:08:31;;;;;;;0.00;0.00;;;26.80;99.90;;;;;;5048550;28;20479;-90
2022/08/22 13:11:06;;;;;;;0.00;0.00;;;26.90;99.90;;;;;;5049428;28;20542;-87
2022/08/22 13:13:53;;;;;;;0.00;0.00;;;27.00;99.90;;;;;;5033531;28;20671;-89
2022/08/22 13:16:26;;;;;;;0.00;0.00;;;26.90;99.90;;;;;;5041368;28;20736;-90
2022/08/22 13:19:31;;;;;;;0.00;0.00;;;26.90;99.90;;;;;;5054173;28;20964;-89
2022/08/22 13:22:07;;;;;;;0.00;0.00;;;26.90;99.90;;;;;;5037986;28;20492;-90
2022/08/22 13:24:40;;;;;;;0.00;0.00;;;27.00;99.90;;;;;;5055405;28;20419;-89
2022/08/22 13:27:25;;;;;;;0.00;0.00;;;27.10;99.90;;;;;;5054484;28;20982;-89
2022/08/22 13:29:59;;;;;;;0.00;0.00;;;27.10;99.90;;;;;;5053585;28;20479;-91
2022/08/22 13:32:37;;;;;;;0.00;0.00;;;27.10;99.90;;;;;;5053314;28;20487;-89
2022/08/22 13:35:19;;;;;;;0.00;0.00;;;27.10;99.90;;;;;;5034917;28;20456;-87
2022/08/22 13:38:03;;;;;;;0.00;0.00;;;27.00;99.90;;;;;;5035209;28;20447;-89
2022/08/22 13:40:36;;;;;;;0.00;0.00;;;27.00;99.90;;;;;;5036800;28;20451;-90
2022/08/22 13:43:07;;;;;;;0.00;0.00;;;27.00;99.90;;;;;;5037712;28;20526;-88
2022/08/22 13:45:38;;;;;;;0.00;0.00;;;27.00;99.90;;;;;;5043901;28;20506;-89
2022/08/22 13:48:14;;;;;;;0.00;0.00;;;27.00;99.90;;;;;;5044949;28;20462;-90
2022/08/22 13:51:01;;;;;;;0.00;0.00;;;27.10;99.90;;;;;;5037803;28;20546;-90
2022/08/22 13:53:39;;;;;;;0.00;0.00;;;27.10;99.90;;;;;;5035475;28;20479;-90
2022/08/22 13:56:21;;;;;;;0.00;0.00;;;27.20;99.90;;;;;;5035931;28;20466;-88
2022/08/22 13:58:58;;;;;;;0.00;0.00;;;27.20;99.90;;;;;;5035724;28;20475;-88
2022/08/22 14:01:36;;;;;;;0.00;0.00;;;27.20;99.90;;;;;;5040507;28;20471;-89
2022/08/22 14:04:13;;;;;;;0.00;0.00;;;27.20;99.90;;;;;;5053797;28;20428;-89
2022/08/22 14:07:22;;;;;;;0.00;0.00;;;27.20;99.90;;;;;;5053145;28;20502;-90
2022/08/22 14:09:58;;;;;;;0.00;0.00;;;27.20;99.90;;;;;;5054040;28;20506;-89